sensor_id;sensor_type;location;lat;lon;timestamp;P1;durP1;ratioP1;P2;durP2;ratioP2
21326;SDS011;10822;51.532;6.770;2022-08-21T00:00:24;6.50;;;2.30;;
21326;SDS011;10822;51.532;6.770;2022-08-21T00:02:55;3.08;;;1.85;;
21326;SDS011;10822;51.532;6.770;2022-08-21T00:05:22;2.10;;;1.85;;
21326;SDS011;10822;51.532;6.770;2022-08-21T00:07:48;2.75;;;2.10;;
21326;SDS011;10822;51.532;6.770;2022-08-21T00:10:14;3.90;;;2.20;;
21326;SDS011;10822;51.532;6.770;2022-08-21T00:12:41;5.15;;;2.30;;
21326;SDS011;10822;51.532;6.770;2022-08-21T00:15:07;5.03;;;2.88;;
21326;SDS011;10822;51.532;6.770;2022-08-21T00:17:34;4.55;;;2.78;;
21326;SDS011;10822;51.532;6.770;2022-08-21T00:20:00;4.88;;;2.20;;
21326;SDS011;10822;51.532;6.770;2022-08-21T00:22:27;4.88;;;2.80;;
21326;SDS011;10822;51.532;6.770;2022-08-21T00:24:53;4.75;;;2.72;;
21326;SDS011;10822;51.532;6.770;2022-08-21T00:27:19;3.58;;;2.90;;
21326;SDS011;10822;51.532;6.770;2022-08-21T00:29:45;6.18;;;3.08;;
21326;SDS011;10822;51.532;6.770;2022-08-21T00:32:11;5.57;;;3.15;;
21326;SDS011;10822;51.532;6.770;2022-08-21T00:34:37;5.65;;;3.05;;
21326;SDS011;10822;51.532;6.770;2022-08-21T00:37:03;5.10;;;3.13;;
21326;SDS011;10822;51.532;6.770;2022-08-21T00:39:29;4.35;;;2.63;;
21326;SDS011;10822;51.532;6.770;2022-08-21T00:41:55;6.13;;;2.92;;
21326;SDS011;10822;51.532;6.770;2022-08-21T00:44:21;5.35;;;2.72;;
21326;SDS011;10822;51.532;6.770;2022-08-21T00:46:47;5.68;;;3.30;;
21326;SDS011;10822;51.532;6.770;2022-08-21T00:49:14;4.57;;;2.70;;
21326;SDS011;10822;51.532;6.770;2022-08-21T00:51:42;4.60;;;2.92;;
21326;SDS011;10822;51.532;6.770;2022-08-21T00:54:08;4.30;;;2.75;;
21326;SDS011;10822;51.532;6.770;2022-08-21T00:56:35;3.97;;;2.78;;
21326;SDS011;10822;51.532;6.770;2022-08-21T00:59:01;4.18;;;2.47;;
21326;SDS011;10822;51.532;6.770;2022-08-21T01:01:28;2.65;;;2.13;;
21326;SDS011;10822;51.532;6.770;2022-08-21T01:03:54;2.30;;;2.10;;
21326;SDS011;10822;51.532;6.770;2022-08-21T01:06:20;3.50;;;2.60;;
21326;SDS011;10822;51.532;6.770;2022-08-21T01:08:46;3.15;;;2.70;;
21326;SDS011;10822;51.532;6.770;2022-08-21T01:11:13;5.20;;;3.03;;
21326;SDS011;10822;51.532;6.770;2022-08-21T01:13:40;3.10;;;2.60;;
21326;SDS011;10822;51.532;6.770;2022-08-21T01:16:11;4.05;;;2.90;;
21326;SDS011;10822;51.532;6.770;2022-08-21T01:18:37;3.45;;;2.50;;
21326;SDS011;10822;51.532;6.770;2022-08-21T01:21:23;4.88;;;2.72;;
21326;SDS011;10822;51.532;6.770;2022-08-21T01:23:50;3.55;;;2.45;;
21326;SDS011;10822;51.532;6.770;2022-08-21T01:26:18;4.32;;;2.70;;
21326;SDS011;10822;51.532;6.770;2022-08-21T01:28:46;3.42;;;2.83;;
21326;SDS011;10822;51.532;6.770;2022-08-21T01:31:14;3.85;;;2.88;;
21326;SDS011;10822;51.532;6.770;2022-08-21T01:33:40;4.10;;;2.47;;
21326;SDS011;10822;51.532;6.770;2022-08-21T01:36:06;3.83;;;2.47;;
21326;SDS011;10822;51.532;6.770;2022-08-21T01:38:33;5.05;;;2.90;;
21326;SDS011;10822;51.532;6.770;2022-08-21T01:40:59;3.75;;;2.60;;
21326;SDS011;10822;51.532;6.770;2022-08-21T01:43:25;5.05;;;2.65;;
21326;SDS011;10822;51.532;6.770;2022-08-21T01:45:51;4.53;;;3.03;;
21326;SDS011;10822;51.532;6.770;2022-08-21T01:48:17;4.65;;;2.50;;
21326;SDS011;10822;51.532;6.770;2022-08-21T01:50:43;3.38;;;2.63;;
21326;SDS011;10822;51.532;6.770;2022-08-21T01:53:09;3.78;;;2.42;;
21326;SDS011;10822;51.532;6.770;2022-08-21T01:55:35;3.92;;;2.80;;
21326;SDS011;10822;51.532;6.770;2022-08-21T01:58:01;3.35;;;2.35;;
21326;SDS011;10822;51.532;6.770;2022-08-21T02:00:28;3.78;;;2.80;;
21326;SDS011;10822;51.532;6.770;2022-08-21T02:02:54;4.32;;;2.65;;
21326;SDS011;10822;51.532;6.770;2022-08-21T02:05:20;6.00;;;3.08;;
21326;SDS011;10822;51.532;6.770;2022-08-21T02:07:50;3.83;;;2.53;;
21326;SDS011;10822;51.532;6.770;2022-08-21T02:10:21;4.00;;;2.80;;
21326;SDS011;10822;51.532;6.770;2022-08-21T02:12:48;3.63;;;2.53;;
21326;SDS011;10822;51.532;6.770;2022-08-21T02:15:15;4.25;;;2.63;;
21326;SDS011;10822;51.532;6.770;2022-08-21T02:17:43;4.13;;;3.00;;
21326;SDS011;10822;51.532;6.770;2022-08-21T02:20:10;4.15;;;2.42;;
21326;SDS011;10822;51.532;6.770;2022-08-21T02:22:37;4.63;;;2.80;;
21326;SDS011;10822;51.532;6.770;2022-08-21T02:25:03;3.80;;;2.58;;
21326;SDS011;10822;51.532;6.770;2022-08-21T02:27:29;3.83;;;3.03;;
21326;SDS011;10822;51.532;6.770;2022-08-21T02:30:02;5.43;;;3.33;;
21326;SDS011;10822;51.532;6.770;2022-08-21T02:32:28;5.47;;;3.15;;
21326;SDS011;10822;51.532;6.770;2022-08-21T02:34:54;3.53;;;2.88;;
21326;SDS011;10822;51.532;6.770;2022-08-21T02:37:20;4.00;;;2.83;;
21326;SDS011;10822;51.532;6.770;2022-08-21T02:39:47;3.65;;;2.55;;
21326;SDS011;10822;51.532;6.770;2022-08-21T02:42:14;3.42;;;2.70;;
21326;SDS011;10822;51.532;6.770;2022-08-21T02:44:40;4.55;;;2.63;;
21326;SDS011;10822;51.532;6.770;2022-08-21T02:47:07;5.28;;;2.95;;
21326;SDS011;10822;51.532;6.770;2022-08-21T02:49:32;4.15;;;2.50;;
21326;SDS011;10822;51.532;6.770;2022-08-21T02:51:58;3.33;;;2.55;;
21326;SDS011;10822;51.532;6.770;2022-08-21T02:54:25;5.78;;;3.00;;
21326;SDS011;10822;51.532;6.770;2022-08-21T02:56:51;3.40;;;2.75;;
21326;SDS011;10822;51.532;6.770;2022-08-21T02:59:17;3.38;;;2.35;;
21326;SDS011;10822;51.532;6.770;2022-08-21T03:01:43;4.00;;;2.55;;
21326;SDS011;10822;51.532;6.770;2022-08-21T03:04:09;3.42;;;2.70;;
21326;SDS011;10822;51.532;6.770;2022-08-21T03:06:35;4.20;;;2.53;;
21326;SDS011;10822;51.532;6.770;2022-08-21T03:09:01;3.42;;;2.63;;
21326;SDS011;10822;51.532;6.770;2022-08-21T03:11:27;7.05;;;2.85;;
21326;SDS011;10822;51.532;6.770;2022-08-21T03:13:53;4.28;;;2.38;;
21326;SDS011;10822;51.532;6.770;2022-08-21T03:16:19;3.78;;;2.78;;
21326;SDS011;10822;51.532;6.770;2022-08-21T03:18:46;4.05;;;3.00;;
21326;SDS011;10822;51.532;6.770;2022-08-21T03:21:12;3.78;;;2.95;;
21326;SDS011;10822;51.532;6.770;2022-08-21T03:23:38;3.42;;;2.50;;
21326;SDS011;10822;51.532;6.770;2022-08-21T03:26:05;4.00;;;2.47;;
21326;SDS011;10822;51.532;6.770;2022-08-21T03:28:31;4.20;;;2.60;;
21326;SDS011;10822;51.532;6.770;2022-08-21T03:30:57;4.68;;;2.97;;
21326;SDS011;10822;51.532;6.770;2022-08-21T03:33:23;3.92;;;2.60;;
21326;SDS011;10822;51.532;6.770;2022-08-21T03:35:56;3.67;;;2.15;;
21326;SDS011;10822;51.532;6.770;2022-08-21T03:38:22;3.05;;;2.70;;
21326;SDS011;10822;51.532;6.770;2022-08-21T03:40:48;3.65;;;2.55;;
21326;SDS011;10822;51.532;6.770;2022-08-21T03:43:14;4.05;;;2.67;;
21326;SDS011;10822;51.532;6.770;2022-08-21T03:45:41;3.70;;;2.55;;
21326;SDS011;10822;51.532;6.770;2022-08-21T03:48:07;4.40;;;2.35;;
21326;SDS011;10822;51.532;6.770;2022-08-21T03:50:36;3.25;;;2.45;;
21326;SDS011;10822;51.532;6.770;2022-08-21T03:53:02;4.10;;;2.40;;
21326;SDS011;10822;51.532;6.770;2022-08-21T03:55:28;4.45;;;2.75;;
21326;SDS011;10822;51.532;6.770;2022-08-21T03:57:55;6.22;;;2.50;;
21326;SDS011;10822;51.532;6.770;2022-08-21T04:00:21;3.53;;;2.72;;
21326;SDS011;10822;51.532;6.770;2022-08-21T04:02:48;3.53;;;2.45;;
21326;SDS011;10822;51.532;6.770;2022-08-21T04:05:15;4.25;;;2.67;;
21326;SDS011;10822;51.532;6.770;2022-08-21T04:07:52;3.70;;;2.88;;
21326;SDS011;10822;51.532;6.770;2022-08-21T04:10:18;3.47;;;2.75;;
21326;SDS011;10822;51.532;6.770;2022-08-21T04:12:44;3.78;;;2.95;;
21326;SDS011;10822;51.532;6.770;2022-08-21T04:15:10;4.75;;;2.85;;
21326;SDS011;10822;51.532;6.770;2022-08-21T04:17:37;4.75;;;2.75;;
21326;SDS011;10822;51.532;6.770;2022-08-21T04:20:04;4.43;;;3.00;;
21326;SDS011;10822;51.532;6.770;2022-08-21T04:22:30;3.75;;;2.65;;
21326;SDS011;10822;51.532;6.770;2022-08-21T04:24:56;4.47;;;2.95;;
21326;SDS011;10822;51.532;6.770;2022-08-21T04:27:22;4.93;;;2.92;;
21326;SDS011;10822;51.532;6.770;2022-08-21T04:29:48;3.60;;;2.63;;
21326;SDS011;10822;51.532;6.770;2022-08-21T04:32:20;5.45;;;3.20;;
21326;SDS011;10822;51.532;6.770;2022-08-21T04:34:47;5.65;;;2.60;;
21326;SDS011;10822;51.532;6.770;2022-08-21T04:37:13;7.93;;;3.20;;
21326;SDS011;10822;51.532;6.770;2022-08-21T04:39:40;4.00;;;2.50;;
21326;SDS011;10822;51.532;6.770;2022-08-21T04:42:06;5.25;;;3.13;;
21326;SDS011;10822;51.532;6.770;2022-08-21T04:44:32;4.20;;;2.97;;
21326;SDS011;10822;51.532;6.770;2022-08-21T04:46:58;4.45;;;3.00;;
21326;SDS011;10822;51.532;6.770;2022-08-21T04:49:24;5.45;;;2.83;;
21326;SDS011;10822;51.532;6.770;2022-08-21T04:51:51;4.18;;;2.70;;
21326;SDS011;10822;51.532;6.770;2022-08-21T04:54:19;7.47;;;3.40;;
21326;SDS011;10822;51.532;6.770;2022-08-21T04:56:47;5.57;;;3.70;;
21326;SDS011;10822;51.532;6.770;2022-08-21T04:59:26;6.53;;;3.53;;
21326;SDS011;10822;51.532;6.770;2022-08-21T05:01:53;5.18;;;3.55;;
21326;SDS011;10822;51.532;6.770;2022-08-21T05:04:21;8.43;;;3.90;;
21326;SDS011;10822;51.532;6.770;2022-08-21T05:06:48;6.90;;;3.70;;
21326;SDS011;10822;51.532;6.770;2022-08-21T05:09:16;7.13;;;3.65;;
21326;SDS011;10822;51.532;6.770;2022-08-21T05:11:42;6.10;;;3.50;;
21326;SDS011;10822;51.532;6.770;2022-08-21T05:14:09;6.78;;;3.83;;
21326;SDS011;10822;51.532;6.770;2022-08-21T05:16:36;6.78;;;4.38;;
21326;SDS011;10822;51.532;6.770;2022-08-21T05:19:03;4.35;;;3.92;;
21326;SDS011;10822;51.532;6.770;2022-08-21T05:21:29;5.63;;;4.15;;
21326;SDS011;10822;51.532;6.770;2022-08-21T05:23:55;5.00;;;4.05;;
21326;SDS011;10822;51.532;6.770;2022-08-21T05:26:21;5.90;;;4.38;;
21326;SDS011;10822;51.532;6.770;2022-08-21T05:28:47;6.15;;;4.57;;
21326;SDS011;10822;51.532;6.770;2022-08-21T05:31:13;7.10;;;4.50;;
21326;SDS011;10822;51.532;6.770;2022-08-21T05:33:39;6.43;;;4.70;;
21326;SDS011;10822;51.532;6.770;2022-08-21T05:36:05;7.22;;;4.80;;
21326;SDS011;10822;51.532;6.770;2022-08-21T05:38:31;5.75;;;4.60;;
21326;SDS011;10822;51.532;6.770;2022-08-21T05:40:57;5.97;;;4.75;;
21326;SDS011;10822;51.532;6.770;2022-08-21T05:43:23;7.13;;;5.25;;
21326;SDS011;10822;51.532;6.770;2022-08-21T05:45:49;7.68;;;5.38;;
21326;SDS011;10822;51.532;6.770;2022-08-21T05:48:17;7.35;;;5.07;;
21326;SDS011;10822;51.532;6.770;2022-08-21T05:50:44;6.40;;;5.53;;
21326;SDS011;10822;51.532;6.770;2022-08-21T05:53:11;7.13;;;5.13;;
21326;SDS011;10822;51.532;6.770;2022-08-21T05:55:37;7.03;;;4.93;;
21326;SDS011;10822;51.532;6.770;2022-08-21T05:58:04;10.02;;;5.55;;
21326;SDS011;10822;51.532;6.770;2022-08-21T06:00:30;8.05;;;5.07;;
21326;SDS011;10822;51.532;6.770;2022-08-21T06:02:57;6.35;;;4.40;;
21326;SDS011;10822;51.532;6.770;2022-08-21T06:05:23;6.35;;;4.57;;
21326;SDS011;10822;51.532;6.770;2022-08-21T06:07:49;8.13;;;4.50;;
21326;SDS011;10822;51.532;6.770;2022-08-21T06:10:16;8.88;;;5.30;;
21326;SDS011;10822;51.532;6.770;2022-08-21T06:12:42;5.95;;;3.65;;
21326;SDS011;10822;51.532;6.770;2022-08-21T06:15:11;5.55;;;3.65;;
21326;SDS011;10822;51.532;6.770;2022-08-21T06:17:37;6.07;;;3.55;;
21326;SDS011;10822;51.532;6.770;2022-08-21T06:20:03;6.40;;;3.67;;
21326;SDS011;10822;51.532;6.770;2022-08-21T06:22:29;6.40;;;3.80;;
21326;SDS011;10822;51.532;6.770;2022-08-21T06:24:55;6.72;;;3.70;;
21326;SDS011;10822;51.532;6.770;2022-08-21T06:27:21;6.97;;;3.58;;
21326;SDS011;10822;51.532;6.770;2022-08-21T06:29:48;6.40;;;3.67;;
21326;SDS011;10822;51.532;6.770;2022-08-21T06:32:14;7.88;;;3.83;;
21326;SDS011;10822;51.532;6.770;2022-08-21T06:34:40;5.53;;;2.97;;
21326;SDS011;10822;51.532;6.770;2022-08-21T06:37:07;6.45;;;3.55;;
21326;SDS011;10822;51.532;6.770;2022-08-21T06:39:33;7.30;;;3.22;;
21326;SDS011;10822;51.532;6.770;2022-08-21T06:41:59;7.22;;;3.10;;
21326;SDS011;10822;51.532;6.770;2022-08-21T06:44:25;5.70;;;2.97;;
21326;SDS011;10822;51.532;6.770;2022-08-21T06:46:51;6.40;;;2.85;;
21326;SDS011;10822;51.532;6.770;2022-08-21T06:49:17;6.72;;;3.20;;
21326;SDS011;10822;51.532;6.770;2022-08-21T06:51:43;7.18;;;2.97;;
21326;SDS011;10822;51.532;6.770;2022-08-21T06:54:09;7.43;;;3.35;;
21326;SDS011;10822;51.532;6.770;2022-08-21T06:56:36;6.95;;;3.00;;
21326;SDS011;10822;51.532;6.770;2022-08-21T06:59:03;6.35;;;2.95;;
21326;SDS011;10822;51.532;6.770;2022-08-21T07:01:30;7.13;;;3.35;;
21326;SDS011;10822;51.532;6.770;2022-08-21T07:03:56;7.55;;;3.08;;
21326;SDS011;10822;51.532;6.770;2022-08-21T07:06:22;3.53;;;2.30;;
21326;SDS011;10822;51.532;6.770;2022-08-21T07:08:48;6.40;;;2.45;;
21326;SDS011;10822;51.532;6.770;2022-08-21T07:11:18;4.88;;;1.83;;
21326;SDS011;10822;51.532;6.770;2022-08-21T07:13:44;3.15;;;1.80;;
21326;SDS011;10822;51.532;6.770;2022-08-21T07:16:10;4.70;;;1.60;;
21326;SDS011;10822;51.532;6.770;2022-08-21T07:18:36;4.55;;;1.58;;
21326;SDS011;10822;51.532;6.770;2022-08-21T07:21:03;4.07;;;1.90;;
21326;SDS011;10822;51.532;6.770;2022-08-21T07:23:31;4.78;;;1.90;;
21326;SDS011;10822;51.532;6.770;2022-08-21T07:25:58;4.10;;;1.88;;
21326;SDS011;10822;51.532;6.770;2022-08-21T07:28:25;2.92;;;1.70;;
21326;SDS011;10822;51.532;6.770;2022-08-21T07:30:52;3.13;;;1.80;;
21326;SDS011;10822;51.532;6.770;2022-08-21T07:33:19;4.47;;;1.92;;
21326;SDS011;10822;51.532;6.770;2022-08-21T07:35:45;4.10;;;1.67;;
21326;SDS011;10822;51.532;6.770;2022-08-21T07:38:11;3.40;;;1.75;;
21326;SDS011;10822;51.532;6.770;2022-08-21T07:40:37;4.28;;;1.40;;
21326;SDS011;10822;51.532;6.770;2022-08-21T07:43:03;2.08;;;1.35;;
21326;SDS011;10822;51.532;6.770;2022-08-21T07:45:30;3.20;;;1.40;;
21326;SDS011;10822;51.532;6.770;2022-08-21T07:47:56;2.90;;;1.50;;
21326;SDS011;10822;51.532;6.770;2022-08-21T07:50:22;3.20;;;1.33;;
21326;SDS011;10822;51.532;6.770;2022-08-21T07:52:48;3.45;;;1.30;;
21326;SDS011;10822;51.532;6.770;2022-08-21T07:55:16;2.40;;;1.13;;
21326;SDS011;10822;51.532;6.770;2022-08-21T07:57:42;5.00;;;1.35;;
21326;SDS011;10822;51.532;6.770;2022-08-21T08:00:10;5.78;;;1.17;;
21326;SDS011;10822;51.532;6.770;2022-08-21T08:02:37;2.55;;;1.45;;
21326;SDS011;10822;51.532;6.770;2022-08-21T08:05:06;2.50;;;1.20;;
21326;SDS011;10822;51.532;6.770;2022-08-21T08:07:32;1.63;;;0.90;;
21326;SDS011;10822;51.532;6.770;2022-08-21T08:09:59;3.63;;;1.27;;
21326;SDS011;10822;51.532;6.770;2022-08-21T08:12:25;3.58;;;0.90;;
21326;SDS011;10822;51.532;6.770;2022-08-21T08:14:57;3.83;;;1.00;;
21326;SDS011;10822;51.532;6.770;2022-08-21T08:17:23;3.75;;;1.30;;
21326;SDS011;10822;51.532;6.770;2022-08-21T08:19:50;2.38;;;1.08;;
21326;SDS011;10822;51.532;6.770;2022-08-21T08:25:14;2.42;;;0.88;;
21326;SDS011;10822;51.532;6.770;2022-08-21T08:27:45;1.67;;;0.80;;
21326;SDS011;10822;51.532;6.770;2022-08-21T08:30:15;2.05;;;0.80;;
21326;SDS011;10822;51.532;6.770;2022-08-21T08:33:03;2.22;;;0.80;;
21326;SDS011;10822;51.532;6.770;2022-08-21T08:35:57;2.15;;;0.77;;
21326;SDS011;10822;51.532;6.770;2022-08-21T08:38:46;1.02;;;0.70;;
21326;SDS011;10822;51.532;6.770;2022-08-21T08:41:14;2.10;;;0.75;;
21326;SDS011;10822;51.532;6.770;2022-08-21T08:43:42;1.58;;;0.70;;
21326;SDS011;10822;51.532;6.770;2022-08-21T08:46:13;3.03;;;1.02;;
21326;SDS011;10822;51.532;6.770;2022-08-21T08:49:43;1.27;;;0.70;;
21326;SDS011;10822;51.532;6.770;2022-08-21T08:54:36;2.78;;;1.00;;
21326;SDS011;10822;51.532;6.770;2022-08-21T08:57:07;1.65;;;0.85;;
21326;SDS011;10822;51.532;6.770;2022-08-21T08:59:39;1.35;;;0.70;;
21326;SDS011;10822;51.532;6.770;2022-08-21T09:02:05;2.17;;;0.90;;
21326;SDS011;10822;51.532;6.770;2022-08-21T09:04:32;3.47;;;0.88;;
21326;SDS011;10822;51.532;6.770;2022-08-21T09:07:43;2.78;;;1.05;;
21326;SDS011;10822;51.532;6.770;2022-08-21T09:12:45;2.40;;;1.08;;
21326;SDS011;10822;51.532;6.770;2022-08-21T09:15:27;3.95;;;1.05;;
21326;SDS011;10822;51.532;6.770;2022-08-21T09:27:18;1.83;;;0.65;;
21326;SDS011;10822;51.532;6.770;2022-08-21T09:29:48;1.85;;;0.60;;
21326;SDS011;10822;51.532;6.770;2022-08-21T10:02:31;2.88;;;1.10;;
21326;SDS011;10822;51.532;6.770;2022-08-21T10:05:19;1.92;;;0.90;;
21326;SDS011;10822;51.532;6.770;2022-08-21T10:08:16;3.67;;;1.10;;
21326;SDS011;10822;51.532;6.770;2022-08-21T10:11:18;1.90;;;0.73;;
21326;SDS011;10822;51.532;6.770;2022-08-21T10:35:37;1.90;;;1.13;;
21326;SDS011;10822;51.532;6.770;2022-08-21T10:47:51;2.83;;;0.90;;
21326;SDS011;10822;51.532;6.770;2022-08-21T10:53:34;2.03;;;0.77;;
21326;SDS011;10822;51.532;6.770;2022-08-21T11:17:35;2.72;;;0.68;;
21326;SDS011;10822;51.532;6.770;2022-08-21T11:35:51;1.75;;;0.77;;
21326;SDS011;10822;51.532;6.770;2022-08-21T11:38:38;1.60;;;0.57;;
21326;SDS011;10822;51.532;6.770;2022-08-21T11:43:56;0.95;;;0.60;;
21326;SDS011;10822;51.532;6.770;2022-08-21T11:47:02;1.20;;;0.68;;
21326;SDS011;10822;51.532;6.770;2022-08-21T11:52:21;1.00;;;0.45;;
21326;SDS011;10822;51.532;6.770;2022-08-21T12:03:15;1.05;;;0.47;;
21326;SDS011;10822;51.532;6.770;2022-08-21T12:15:30;1.77;;;0.50;;
21326;SDS011;10822;51.532;6.770;2022-08-21T12:18:18;1.50;;;0.55;;
21326;SDS011;10822;51.532;6.770;2022-08-21T12:20:56;1.58;;;0.70;;
21326;SDS011;10822;51.532;6.770;2022-08-21T12:29:03;1.00;;;0.40;;
21326;SDS011;10822;51.532;6.770;2022-08-21T12:31:36;1.38;;;0.40;;
21326;SDS011;10822;51.532;6.770;2022-08-21T12:34:12;0.95;;;0.40;;
21326;SDS011;10822;51.532;6.770;2022-08-21T12:36:53;1.10;;;0.50;;
21326;SDS011;10822;51.532;6.770;2022-08-21T12:39:24;0.57;;;0.40;;
21326;SDS011;10822;51.532;6.770;2022-08-21T12:44:54;1.40;;;0.52;;
21326;SDS011;10822;51.532;6.770;2022-08-21T12:50:07;1.23;;;0.43;;
21326;SDS011;10822;51.532;6.770;2022-08-21T12:52:45;2.13;;;0.73;;
21326;SDS011;10822;51.532;6.770;2022-08-21T12:55:14;1.25;;;0.75;;
21326;SDS011;10822;51.532;6.770;2022-08-21T12:57:42;1.02;;;0.50;;
21326;SDS011;10822;51.532;6.770;2022-08-21T13:00:09;1.52;;;0.70;;
21326;SDS011;10822;51.532;6.770;2022-08-21T13:02:42;1.90;;;0.90;;
21326;SDS011;10822;51.532;6.770;2022-08-21T13:05:12;2.00;;;0.63;;
21326;SDS011;10822;51.532;6.770;2022-08-21T13:07:46;1.02;;;0.38;;
21326;SDS011;10822;51.532;6.770;2022-08-21T13:15:11;1.63;;;0.70;;
21326;SDS011;10822;51.532;6.770;2022-08-21T13:17:42;0.52;;;0.40;;
21326;SDS011;10822;51.532;6.770;2022-08-21T13:22:45;1.73;;;0.73;;
21326;SDS011;10822;51.532;6.770;2022-08-21T13:25:16;1.30;;;0.45;;
21326;SDS011;10822;51.532;6.770;2022-08-21T13:27:43;2.00;;;0.55;;
21326;SDS011;10822;51.532;6.770;2022-08-21T13:30:12;2.30;;;0.60;;
21326;SDS011;10822;51.532;6.770;2022-08-21T13:32:43;1.13;;;0.50;;
21326;SDS011;10822;51.532;6.770;2022-08-21T13:35:11;1.58;;;0.60;;
21326;SDS011;10822;51.532;6.770;2022-08-21T13:37:39;0.90;;;0.63;;
21326;SDS011;10822;51.532;6.770;2022-08-21T13:40:06;1.73;;;0.50;;
21326;SDS011;10822;51.532;6.770;2022-08-21T13:42:32;1.58;;;0.50;;
21326;SDS011;10822;51.532;6.770;2022-08-21T13:44:58;0.95;;;0.47;;
21326;SDS011;10822;51.532;6.770;2022-08-21T13:47:24;1.35;;;0.52;;
21326;SDS011;10822;51.532;6.770;2022-08-21T13:49:51;2.25;;;0.70;;
21326;SDS011;10822;51.532;6.770;2022-08-21T13:52:20;2.28;;;1.00;;
21326;SDS011;10822;51.532;6.770;2022-08-21T13:54:54;1.20;;;0.60;;
21326;SDS011;10822;51.532;6.770;2022-08-21T13:57:25;0.98;;;0.70;;
21326;SDS011;10822;51.532;6.770;2022-08-21T13:59:51;1.63;;;0.50;;
21326;SDS011;10822;51.532;6.770;2022-08-21T14:02:18;1.23;;;0.45;;
21326;SDS011;10822;51.532;6.770;2022-08-21T14:04:54;1.15;;;0.40;;
21326;SDS011;10822;51.532;6.770;2022-08-21T14:07:26;0.88;;;0.52;;
21326;SDS011;10822;51.532;6.770;2022-08-21T14:09:53;1.90;;;0.80;;
21326;SDS011;10822;51.532;6.770;2022-08-21T14:12:29;2.08;;;0.80;;
21326;SDS011;10822;51.532;6.770;2022-08-21T14:14:58;1.90;;;0.80;;
21326;SDS011;10822;51.532;6.770;2022-08-21T14:17:29;1.00;;;0.55;;
21326;SDS011;10822;51.532;6.770;2022-08-21T14:19:56;2.95;;;0.65;;
21326;SDS011;10822;51.532;6.770;2022-08-21T14:22:42;4.38;;;0.68;;
21326;SDS011;10822;51.532;6.770;2022-08-21T14:27:36;1.88;;;0.77;;
21326;SDS011;10822;51.532;6.770;2022-08-21T14:30:09;1.73;;;0.75;;
21326;SDS011;10822;51.532;6.770;2022-08-21T14:32:37;2.00;;;0.77;;
21326;SDS011;10822;51.532;6.770;2022-08-21T14:35:04;2.95;;;0.60;;
21326;SDS011;10822;51.532;6.770;2022-08-21T14:37:30;1.42;;;0.40;;
21326;SDS011;10822;51.532;6.770;2022-08-21T14:39:57;0.63;;;0.45;;
21326;SDS011;10822;51.532;6.770;2022-08-21T14:42:23;2.40;;;0.50;;
21326;SDS011;10822;51.532;6.770;2022-08-21T14:44:49;2.35;;;0.70;;
21326;SDS011;10822;51.532;6.770;2022-08-21T14:47:15;1.40;;;0.75;;
21326;SDS011;10822;51.532;6.770;2022-08-21T14:49:42;1.27;;;0.50;;
21326;SDS011;10822;51.532;6.770;2022-08-21T14:52:08;0.90;;;0.60;;
21326;SDS011;10822;51.532;6.770;2022-08-21T14:54:34;1.10;;;0.38;;
21326;SDS011;10822;51.532;6.770;2022-08-21T14:57:01;1.45;;;0.50;;
21326;SDS011;10822;51.532;6.770;2022-08-21T14:59:27;2.35;;;0.80;;
21326;SDS011;10822;51.532;6.770;2022-08-21T15:01:53;1.38;;;0.50;;
21326;SDS011;10822;51.532;6.770;2022-08-21T15:04:21;1.92;;;0.70;;
21326;SDS011;10822;51.532;6.770;2022-08-21T15:06:47;1.55;;;0.52;;
21326;SDS011;10822;51.532;6.770;2022-08-21T15:09:13;0.88;;;0.35;;
21326;SDS011;10822;51.532;6.770;2022-08-21T15:11:39;2.20;;;0.60;;
21326;SDS011;10822;51.532;6.770;2022-08-21T15:14:06;2.50;;;1.23;;
21326;SDS011;10822;51.532;6.770;2022-08-21T15:16:33;1.92;;;0.60;;
21326;SDS011;10822;51.532;6.770;2022-08-21T15:18:59;2.38;;;1.20;;
21326;SDS011;10822;51.532;6.770;2022-08-21T15:21:25;4.55;;;3.47;;
21326;SDS011;10822;51.532;6.770;2022-08-21T15:23:51;12.05;;;10.02;;
21326;SDS011;10822;51.532;6.770;2022-08-21T15:26:18;5.32;;;4.13;;
21326;SDS011;10822;51.532;6.770;2022-08-21T15:28:45;8.43;;;5.30;;
21326;SDS011;10822;51.532;6.770;2022-08-21T15:31:11;2.15;;;1.08;;
21326;SDS011;10822;51.532;6.770;2022-08-21T15:33:37;3.10;;;1.48;;
21326;SDS011;10822;51.532;6.770;2022-08-21T15:36:04;2.33;;;0.77;;
21326;SDS011;10822;51.532;6.770;2022-08-21T15:38:30;6.22;;;3.92;;
21326;SDS011;10822;51.532;6.770;2022-08-21T15:40:56;5.95;;;4.28;;
21326;SDS011;10822;51.532;6.770;2022-08-21T15:43:29;7.93;;;5.25;;
21326;SDS011;10822;51.532;6.770;2022-08-21T15:45:55;2.95;;;1.20;;
21326;SDS011;10822;51.532;6.770;2022-08-21T15:48:21;7.28;;;3.45;;
21326;SDS011;10822;51.532;6.770;2022-08-21T15:50:47;8.35;;;4.40;;
21326;SDS011;10822;51.532;6.770;2022-08-21T15:53:13;25.35;;;11.85;;
21326;SDS011;10822;51.532;6.770;2022-08-21T15:55:39;8.38;;;3.05;;
21326;SDS011;10822;51.532;6.770;2022-08-21T15:58:05;3.88;;;1.77;;
21326;SDS011;10822;51.532;6.770;2022-08-21T16:00:34;1.77;;;0.60;;
21326;SDS011;10822;51.532;6.770;2022-08-21T16:03:00;2.28;;;0.47;;
21326;SDS011;10822;51.532;6.770;2022-08-21T16:05:28;1.30;;;0.70;;
21326;SDS011;10822;51.532;6.770;2022-08-21T16:07:54;1.55;;;0.70;;
21326;SDS011;10822;51.532;6.770;2022-08-21T16:10:21;1.65;;;0.40;;
21326;SDS011;10822;51.532;6.770;2022-08-21T16:12:53;1.83;;;0.60;;
21326;SDS011;10822;51.532;6.770;2022-08-21T16:15:20;1.83;;;0.73;;
21326;SDS011;10822;51.532;6.770;2022-08-21T16:17:55;1.48;;;0.52;;
21326;SDS011;10822;51.532;6.770;2022-08-21T16:20:23;2.00;;;0.50;;
21326;SDS011;10822;51.532;6.770;2022-08-21T16:22:50;2.88;;;0.70;;
21326;SDS011;10822;51.532;6.770;2022-08-21T16:25:16;0.73;;;0.30;;
21326;SDS011;10822;51.532;6.770;2022-08-21T16:27:43;1.63;;;0.43;;
21326;SDS011;10822;51.532;6.770;2022-08-21T16:30:10;1.50;;;0.60;;
21326;SDS011;10822;51.532;6.770;2022-08-21T16:32:39;0.60;;;0.50;;
21326;SDS011;10822;51.532;6.770;2022-08-21T16:35:05;0.88;;;0.47;;
21326;SDS011;10822;51.532;6.770;2022-08-21T16:37:31;1.08;;;0.52;;
21326;SDS011;10822;51.532;6.770;2022-08-21T16:39:57;0.77;;;0.50;;
21326;SDS011;10822;51.532;6.770;2022-08-21T16:42:24;2.25;;;1.40;;
21326;SDS011;10822;51.532;6.770;2022-08-21T16:44:50;1.42;;;0.90;;
21326;SDS011;10822;51.532;6.770;2022-08-21T16:47:17;2.85;;;0.82;;
21326;SDS011;10822;51.532;6.770;2022-08-21T16:49:42;2.28;;;0.88;;
21326;SDS011;10822;51.532;6.770;2022-08-21T16:52:10;1.08;;;1.00;;
21326;SDS011;10822;51.532;6.770;2022-08-21T16:54:36;2.85;;;0.95;;
21326;SDS011;10822;51.532;6.770;2022-08-21T16:57:02;2.10;;;1.00;;
21326;SDS011;10822;51.532;6.770;2022-08-21T16:59:28;4.20;;;1.20;;
21326;SDS011;10822;51.532;6.770;2022-08-21T17:01:55;2.38;;;0.98;;
21326;SDS011;10822;51.532;6.770;2022-08-21T17:04:21;6.68;;;1.20;;
21326;SDS011;10822;51.532;6.770;2022-08-21T17:06:49;1.88;;;0.98;;
21326;SDS011;10822;51.532;6.770;2022-08-21T17:09:16;1.88;;;1.35;;
21326;SDS011;10822;51.532;6.770;2022-08-21T17:11:43;1.85;;;1.05;;
21326;SDS011;10822;51.532;6.770;2022-08-21T17:14:12;0.93;;;0.75;;
21326;SDS011;10822;51.532;6.770;2022-08-21T17:16:41;2.10;;;1.00;;
21326;SDS011;10822;51.532;6.770;2022-08-21T17:19:09;0.88;;;0.80;;
21326;SDS011;10822;51.532;6.770;2022-08-21T17:21:37;2.20;;;0.95;;
21326;SDS011;10822;51.532;6.770;2022-08-21T17:24:03;2.33;;;1.13;;
21326;SDS011;10822;51.532;6.770;2022-08-21T17:26:29;2.30;;;1.00;;
21326;SDS011;10822;51.532;6.770;2022-08-21T17:28:55;2.40;;;0.90;;
21326;SDS011;10822;51.532;6.770;2022-08-21T17:31:21;2.03;;;1.00;;
21326;SDS011;10822;51.532;6.770;2022-08-21T17:33:48;2.65;;;1.00;;
21326;SDS011;10822;51.532;6.770;2022-08-21T17:36:20;1.73;;;1.10;;
21326;SDS011;10822;51.532;6.770;2022-08-21T17:38:46;2.05;;;1.00;;